Time;durP1;ratioP1;P1;durP2;ratioP2;P2;SDS_P1;SDS_P2;PMS_P1;PMS_P2;Temp;Humidity;BMP_temperature;BMP_pressure;BME280_temperature;BME280_humidity;BME280_pressure;Samples;Min_cycle;Max_cycle;Signal;HPM_P1;HPM_P2
2022/11/03 00:02:23;;;;;;;4.43;3.37;;;15.50;99.90;;;;;;6209998;28;20491;-61
2022/11/03 00:08:47;;;;;;;5.00;3.60;;;15.50;99.90;;;;;;6220422;28;20542;-62
2022/11/03 00:11:52;;;;;;;4.80;3.63;;;15.40;99.90;;;;;;6227871;28;21126;-62
2022/11/03 00:14:55;;;;;;;5.47;3.43;;;15.40;99.90;;;;;;6226137;28;20479;-62
2022/11/03 00:17:58;;;;;;;4.90;4.10;;;15.50;99.90;;;;;;6225954;28;20850;-63
2022/11/03 00:21:03;;;;;;;4.03;3.63;;;15.50;99.90;;;;;;6225951;28;20460;-62
2022/11/03 00:24:07;;;;;;;3.90;3.53;;;15.40;99.90;;;;;;6226018;28;20499;-62
2022/11/03 00:27:11;;;;;;;4.37;3.90;;;15.40;99.90;;;;;;6226055;28;20463;-62
2022/11/03 00:30:14;;;;;;;7.07;3.97;;;15.40;99.90;;;;;;6221796;28;20920;-62
2022/11/03 00:33:17;;;;;;;3.57;3.07;;;15.50;99.90;;;;;;6225713;28;20444;-62
2022/11/03 00:36:22;;;;;;;5.87;4.60;;;15.50;99.90;;;;;;6226241;28;20910;-62
2022/11/03 00:39:25;;;;;;;5.90;3.57;;;15.50;99.90;;;;;;6225607;28;20483;-61
2022/11/03 00:42:30;;;;;;;4.10;3.70;;;15.50;99.90;;;;;;6226136;28;20808;-61
2022/11/03 00:45:33;;;;;;;4.40;4.00;;;15.60;99.90;;;;;;6230278;28;20468;-63
2022/11/03 00:48:37;;;;;;;5.60;4.33;;;15.60;99.90;;;;;;6228736;28;20483;-62
2022/11/03 00:51:40;;;;;;;4.13;3.73;;;15.60;99.90;;;;;;6225056;28;21560;-62
2022/11/03 00:54:43;;;;;;;5.07;4.10;;;15.60;99.90;;;;;;6211834;28;20476;-62
2022/11/03 00:57:51;;;;;;;4.60;4.07;;;15.60;99.90;;;;;;6220960;28;20482;-62
2022/11/03 01:01:02;;;;;;;4.63;4.13;;;15.60;99.90;;;;;;6202947;28;20477;-62
2022/11/03 01:07:26;;;;;;;4.50;3.60;;;15.60;99.90;;;;;;6211459;28;20489;-62
2022/11/03 01:10:30;;;;;;;3.70;3.40;;;15.60;99.90;;;;;;6210852;28;20551;-62
2022/11/03 01:13:34;;;;;;;4.90;4.30;;;15.60;99.90;;;;;;6211061;28;20480;-62
2022/11/03 01:16:37;;;;;;;5.07;4.20;;;15.60;99.90;;;;;;6210580;28;20486;-62
2022/11/03 01:19:40;;;;;;;4.80;4.30;;;15.50;99.90;;;;;;6211690;28;20587;-62
2022/11/03 01:22:44;;;;;;;6.33;4.20;;;15.50;99.90;;;;;;6206078;28;21048;-61
2022/11/03 01:25:47;;;;;;;4.37;3.97;;;15.40;99.90;;;;;;6212482;28;20953;-61
2022/11/03 01:28:51;;;;;;;4.27;3.57;;;15.40;99.90;;;;;;6215169;28;20477;-62
2022/11/03 01:31:54;;;;;;;4.63;4.23;;;15.60;99.90;;;;;;6203094;28;20480;-65
2022/11/03 01:34:57;;;;;;;4.50;3.93;;;15.50;99.90;;;;;;6211265;28;20523;-60
2022/11/03 01:38:00;;;;;;;4.77;4.30;;;15.50;99.90;;;;;;6212299;28;21075;-63
2022/11/03 01:41:07;;;;;;;5.47;4.90;;;15.60;99.90;;;;;;6206017;28;20518;-63
2022/11/03 01:44:35;;;;;;;6.50;5.87;;;15.60;99.90;;;;;;6203441;28;20480;-63
2022/11/03 01:47:38;;;;;;;5.80;4.50;;;15.60;99.90;;;;;;6200812;28;20503;-63
2022/11/03 01:50:43;;;;;;;7.50;4.57;;;15.60;99.90;;;;;;6200573;28;20472;-63
2022/11/03 01:53:51;;;;;;;5.63;4.37;;;15.60;99.90;;;;;;6200492;28;20477;-62
2022/11/03 01:56:55;;;;;;;5.40;4.77;;;15.60;99.90;;;;;;6200387;28;20484;-63
2022/11/03 02:00:01;;;;;;;6.37;5.20;;;15.60;99.90;;;;;;6200248;28;20484;-63
2022/11/03 02:03:06;;;;;;;8.33;6.00;;;15.50;99.90;;;;;;6200449;28;20437;-63
2022/11/03 02:06:10;;;;;;;6.73;5.27;;;15.50;99.90;;;;;;6200432;28;20512;-62
2022/11/03 02:09:13;;;;;;;6.23;5.63;;;15.50;99.90;;;;;;6200108;28;20436;-62
2022/11/03 02:12:18;;;;;;;6.20;5.60;;;15.30;99.90;;;;;;6200628;28;20507;-64
2022/11/03 02:15:23;;;;;;;6.50;5.50;;;15.30;99.90;;;;;;6206822;28;20795;-64
2022/11/03 02:18:29;;;;;;;10.60;6.43;;;15.30;99.90;;;;;;6205586;28;20467;-64
2022/11/03 02:21:43;;;;;;;9.40;6.93;;;15.40;99.90;;;;;;6204682;28;20954;-63
2022/11/03 02:24:51;;;;;;;8.57;7.63;;;15.30;99.90;;;;;;6205099;28;20542;-64
2022/11/03 02:27:58;;;;;;;12.30;8.97;;;15.20;99.90;;;;;;6204967;28;20479;-65
2022/11/03 02:31:10;;;;;;;9.23;7.40;;;15.20;99.90;;;;;;6222695;28;20483;-65
2022/11/03 02:34:20;;;;;;;10.10;8.17;;;15.20;99.90;;;;;;6228585;28;20487;-62
2022/11/03 02:37:27;;;;;;;9.93;8.90;;;15.20;99.90;;;;;;6224409;28;20483;-62
2022/11/03 02:40:34;;;;;;;9.03;7.97;;;15.20;99.90;;;;;;6228352;28;20479;-65
2022/11/03 02:43:39;;;;;;;11.13;8.57;;;15.30;99.90;;;;;;6228623;28;20472;-64
2022/11/03 02:46:44;;;;;;;13.63;10.17;;;15.20;99.90;;;;;;6228418;28;20487;-62
2022/11/03 02:49:49;;;;;;;12.43;9.80;;;15.20;99.90;;;;;;6228620;28;20977;-64
2022/11/03 02:52:52;;;;;;;11.50;10.23;;;15.20;99.90;;;;;;6228108;28;20972;-62
2022/11/03 02:56:01;;;;;;;14.53;11.20;;;15.20;99.90;;;;;;6231080;28;20840;-60
2022/11/03 02:59:11;;;;;;;11.33;10.30;;;15.20;99.90;;;;;;6230272;28;20468;-62
2022/11/03 03:02:18;;;;;;;13.63;10.77;;;15.10;99.90;;;;;;6228253;28;20483;-62
2022/11/03 03:05:26;;;;;;;12.70;10.17;;;15.10;99.90;;;;;;6227881;28;20480;-60
2022/11/03 03:08:30;;;;;;;10.17;9.17;;;15.10;99.90;;;;;;6227962;28;20480;-62
2022/11/03 03:11:37;;;;;;;9.50;8.47;;;14.90;99.90;;;;;;6227777;28;20487;-63
2022/11/03 03:14:45;;;;;;;13.40;10.63;;;14.60;99.90;;;;;;6227578;28;20519;-62
2022/11/03 03:17:52;;;;;;;13.80;9.50;;;14.50;99.90;;;;;;6227581;28;20498;-62
2022/11/03 03:21:01;;;;;;;12.30;9.57;;;14.50;99.90;;;;;;6227930;28;20472;-64
2022/11/03 03:24:10;;;;;;;13.17;10.30;;;14.50;99.90;;;;;;6227231;28;20920;-64
2022/11/03 03:27:17;;;;;;;11.60;10.20;;;14.50;99.90;;;;;;6227613;28;20534;-60
2022/11/03 03:30:22;;;;;;;14.80;11.00;;;14.50;99.90;;;;;;6227543;28;20436;-61
2022/11/03 03:33:27;;;;;;;11.03;9.40;;;14.50;99.90;;;;;;6227582;28;20501;-61
2022/11/03 03:36:38;;;;;;;13.70;10.20;;;14.40;99.90;;;;;;6227496;28;20472;-64
2022/11/03 03:39:45;;;;;;;13.67;10.47;;;14.40;99.90;;;;;;6227539;28;20487;-62
2022/11/03 03:42:51;;;;;;;11.60;9.77;;;14.40;99.90;;;;;;6217999;28;20805;-63
2022/11/03 03:46:00;;;;;;;12.70;10.63;;;14.40;99.90;;;;;;6226816;28;20480;-63
2022/11/03 03:49:04;;;;;;;13.20;10.63;;;14.40;99.90;;;;;;6226737;28;20833;-63
2022/11/03 03:52:09;;;;;;;15.80;10.70;;;14.50;99.90;;;;;;6226969;28;20476;-64
2022/11/03 03:55:17;;;;;;;13.17;10.93;;;14.50;99.90;;;;;;6226953;28;20483;-63
2022/11/03 03:58:20;;;;;;;12.37;9.87;;;14.50;99.90;;;;;;6226725;28;20595;-61
2022/11/03 04:01:25;;;;;;;16.40;11.20;;;14.60;99.90;;;;;;6226538;28;20479;-63
2022/11/03 04:04:28;;;;;;;13.17;10.03;;;14.60;99.90;;;;;;6227573;28;20476;-62
2022/11/03 04:07:46;;;;;;;12.17;10.23;;;14.60;99.90;;;;;;6227923;28;20468;-64
2022/11/03 04:24:15;;;;;;;14.23;9.80;;;14.70;99.90;;;;;;6225972;28;20793;-62
2022/11/03 04:27:30;;;;;;;10.43;8.70;;;14.70;99.90;;;;;;6225930;28;20550;-62
2022/11/03 04:30:33;;;;;;;10.43;9.23;;;14.60;99.90;;;;;;6225888;28;20469;-62
2022/11/03 04:33:38;;;;;;;12.23;9.77;;;14.70;99.90;;;;;;6225949;28;20499;-64
2022/11/03 04:36:41;;;;;;;10.47;9.50;;;14.60;99.90;;;;;;6225243;28;20974;-62
2022/11/03 04:39:45;;;;;;;11.90;10.40;;;14.60;99.90;;;;;;6225923;28;20471;-64
2022/11/03 04:42:48;;;;;;;10.63;8.30;;;14.70;99.90;;;;;;6225996;28;20835;-62
2022/11/03 04:45:51;;;;;;;10.47;8.40;;;14.80;99.90;;;;;;6226154;28;20479;-62
2022/11/03 04:48:59;;;;;;;10.13;9.13;;;14.80;99.90;;;;;;6225792;28;20489;-62
2022/11/03 04:52:02;;;;;;;10.50;8.87;;;14.80;99.90;;;;;;6225702;28;20480;-63
2022/11/03 04:55:10;;;;;;;10.70;9.70;;;14.90;99.90;;;;;;6225885;28;20480;-63
2022/11/03 04:58:19;;;;;;;9.40;8.50;;;14.90;99.90;;;;;;6225271;28;20789;-65
2022/11/03 05:01:24;;;;;;;8.03;7.20;;;14.90;99.90;;;;;;6226227;28;20501;-63
2022/11/03 05:04:29;;;;;;;9.80;7.87;;;15.00;99.90;;;;;;6225652;28;20471;-63
2022/11/03 05:07:35;;;;;;;9.73;8.27;;;15.00;99.90;;;;;;6228187;28;20952;-63
2022/11/03 05:10:38;;;;;;;10.27;8.53;;;15.00;99.90;;;;;;6226096;28;20541;-62
2022/11/03 05:13:42;;;;;;;10.70;9.07;;;15.00;99.90;;;;;;6225468;28;20482;-60
2022/11/03 05:16:45;;;;;;;10.73;8.30;;;14.90;99.90;;;;;;6225283;28;20495;-60
2022/11/03 05:19:51;;;;;;;12.80;7.93;;;14.90;99.90;;;;;;6225447;28;20483;-61
2022/11/03 05:22:54;;;;;;;8.10;7.03;;;15.00;99.90;;;;;;6225380;28;20479;-61
2022/11/03 05:25:59;;;;;;;9.50;8.67;;;15.00;99.90;;;;;;6224815;28;20495;-61
2022/11/03 05:29:04;;;;;;;11.10;7.97;;;15.00;99.90;;;;;;6225540;28;20476;-60
2022/11/03 05:32:14;;;;;;;10.50;9.13;;;15.00;99.90;;;;;;6225044;28;20472;-62
2022/11/03 05:35:22;;;;;;;9.60;8.53;;;15.00;99.90;;;;;;6225538;28;20475;-62
2022/11/03 05:38:30;;;;;;;10.70;9.27;;;15.00;99.90;;;;;;6224820;28;20495;-61
2022/11/03 05:41:35;;;;;;;8.87;7.77;;;15.00;99.90;;;;;;6224956;28;20973;-64
2022/11/03 05:44:40;;;;;;;11.53;8.53;;;15.00;99.90;;;;;;6225070;28;20958;-65
2022/11/03 05:47:43;;;;;;;11.00;8.37;;;15.00;99.90;;;;;;6225635;28;20476;-64
2022/11/03 05:50:48;;;;;;;12.13;8.70;;;15.10;99.90;;;;;;6229985;28;20482;-63
2022/11/03 05:53:53;;;;;;;9.67;8.30;;;15.00;99.90;;;;;;6222709;28;20485;-63
2022/11/03 05:56:57;;;;;;;8.93;8.13;;;15.00;99.90;;;;;;6205732;28;21198;-63
2022/11/03 06:00:00;;;;;;;13.47;9.60;;;15.00;99.90;;;;;;6204494;28;20487;-61
2022/11/03 06:03:04;;;;;;;11.13;9.73;;;15.00;99.90;;;;;;6205126;28;20523;-64
2022/11/03 06:06:18;;;;;;;11.73;9.20;;;15.00;99.90;;;;;;6205040;28;20485;-61
2022/11/03 06:09:25;;;;;;;8.77;7.90;;;15.00;99.90;;;;;;6205455;28;20530;-60
2022/11/03 06:12:30;;;;;;;10.67;8.00;;;15.10;99.90;;;;;;6205367;28;20465;-63
2022/11/03 06:15:35;;;;;;;11.07;8.37;;;15.10;99.90;;;;;;6205558;28;20472;-64
2022/11/03 06:18:38;;;;;;;9.50;8.20;;;15.10;99.90;;;;;;6205324;28;20810;-63
2022/11/03 06:21:43;;;;;;;10.63;7.87;;;15.10;99.90;;;;;;6204777;28;20483;-63
2022/11/03 06:24:47;;;;;;;9.23;8.27;;;15.10;99.90;;;;;;6205414;28;20472;-63
2022/11/03 06:27:51;;;;;;;10.30;8.70;;;15.10;99.90;;;;;;6204759;28;20479;-62
2022/11/03 06:30:54;;;;;;;10.30;9.00;;;15.10;99.90;;;;;;6205152;28;20500;-62
2022/11/03 06:33:58;;;;;;;12.40;8.60;;;15.10;99.90;;;;;;6205401;28;20484;-62
2022/11/03 06:37:15;;;;;;;13.00;8.50;;;15.20;99.90;;;;;;6204812;28;20480;-61
2022/11/03 06:40:34;;;;;;;13.87;9.83;;;15.10;99.90;;;;;;6204787;28;20470;-61
2022/11/03 06:43:41;;;;;;;10.97;9.37;;;15.10;99.90;;;;;;6204096;28;21013;-62
2022/11/03 06:46:45;;;;;;;10.67;9.57;;;15.10;99.90;;;;;;6204400;28;20509;-62
2022/11/03 06:49:48;;;;;;;10.30;9.40;;;15.10;99.90;;;;;;6204455;28;20572;-62
2022/11/03 06:52:54;;;;;;;12.50;10.10;;;15.20;99.90;;;;;;6204708;28;20488;-62
2022/11/03 06:55:58;;;;;;;9.80;8.27;;;15.20;99.90;;;;;;6204154;28;20815;-62
2022/11/03 06:59:01;;;;;;;11.13;9.07;;;15.20;99.90;;;;;;6203648;28;20487;-62
2022/11/03 07:02:24;;;;;;;10.70;9.70;;;15.20;99.90;;;;;;6211206;28;20480;-62
2022/11/03 07:05:29;;;;;;;10.90;9.80;;;15.20;99.90;;;;;;6210328;28;20478;-62
2022/11/03 07:08:37;;;;;;;15.00;11.77;;;15.30;99.90;;;;;;6216473;28;20772;-61
2022/11/03 07:11:45;;;;;;;13.70;9.87;;;15.50;99.90;;;;;;6215074;28;20492;-63
2022/11/03 07:14:48;;;;;;;12.70;10.87;;;15.60;99.90;;;;;;6216458;28;20476;-64
2022/11/03 07:17:52;;;;;;;11.73;10.63;;;15.70;99.90;;;;;;6219419;28;20476;-64
2022/11/03 07:20:57;;;;;;;11.20;9.33;;;15.80;99.90;;;;;;6227922;28;20483;-59
2022/11/03 07:24:05;;;;;;;15.00;8.10;;;15.90;99.90;;;;;;6229183;28;20483;-60
2022/11/03 07:27:19;;;;;;;8.80;7.27;;;16.00;99.90;;;;;;6233322;28;20538;-61
2022/11/03 07:30:24;;;;;;;7.00;6.20;;;16.10;99.90;;;;;;6220410;28;20428;-60
2022/11/03 07:33:29;;;;;;;6.87;6.17;;;16.10;99.90;;;;;;6217432;28;20456;-64
2022/11/03 07:36:32;;;;;;;7.17;5.93;;;16.10;99.90;;;;;;6213821;28;20563;-64
2022/11/03 07:39:38;;;;;;;6.43;5.80;;;16.20;99.90;;;;;;6216449;28;20468;-60
2022/11/03 07:42:41;;;;;;;8.57;6.17;;;16.10;99.90;;;;;;6218722;28;20480;-62
2022/11/03 07:45:49;;;;;;;7.47;6.13;;;16.20;99.90;;;;;;6215993;28;20471;-64
2022/11/03 07:48:55;;;;;;;6.60;6.00;;;16.30;99.90;;;;;;6218002;28;20820;-63
2022/11/03 07:51:59;;;;;;;8.10;6.00;;;16.40;99.90;;;;;;6213480;28;20822;-64
2022/11/03 07:55:10;;;;;;;7.33;5.60;;;16.60;99.90;;;;;;6204569;28;20962;-64
2022/11/03 07:58:34;;;;;;;11.40;5.30;;;16.90;99.90;;;;;;6206394;28;20549;-63
2022/11/03 08:01:40;;;;;;;7.03;5.03;;;17.10;99.90;;;;;;6194378;28;20469;-62
2022/11/03 08:04:43;;;;;;;6.10;4.70;;;17.30;99.90;;;;;;6202677;28;20503;-62
2022/11/03 08:07:46;;;;;;;8.20;5.63;;;17.50;99.90;;;;;;6202199;28;20539;-64
2022/11/03 08:10:51;;;;;;;7.97;4.60;;;17.60;99.90;;;;;;6206698;28;20468;-62
2022/11/03 08:13:54;;;;;;;6.30;5.17;;;17.70;99.90;;;;;;6217701;28;20476;-63
2022/11/03 08:16:57;;;;;;;4.73;3.77;;;17.80;99.90;;;;;;6214765;28;20473;-62
2022/11/03 08:20:00;;;;;;;6.57;5.03;;;17.80;99.90;;;;;;6223879;28;20986;-62
2022/11/03 08:23:04;;;;;;;8.00;4.30;;;17.70;99.60;;;;;;6213626;28;20549;-62
2022/11/03 08:26:28;;;;;;;8.80;3.60;;;17.70;99.90;;;;;;6212168;28;20312;-62
2022/11/03 08:29:31;;;;;;;6.30;4.27;;;17.70;99.50;;;;;;6216070;28;20566;-63
2022/11/03 08:32:34;;;;;;;4.90;4.30;;;17.70;98.90;;;;;;6218574;28;20534;-62
2022/11/03 08:35:37;;;;;;;4.33;3.83;;;17.60;99.20;;;;;;6220215;28;20487;-62
2022/11/03 08:38:41;;;;;;;8.63;4.10;;;17.70;98.70;;;;;;6226100;28;20476;-62
2022/11/03 08:41:45;;;;;;;4.90;4.13;;;17.80;98.30;;;;;;6225929;28;20476;-62
2022/11/03 08:44:48;;;;;;;4.70;3.83;;;17.90;98.30;;;;;;6225657;28;20472;-62
2022/11/03 08:47:52;;;;;;;4.93;3.90;;;18.40;98.50;;;;;;6225570;28;20487;-62
2022/11/03 08:50:55;;;;;;;4.87;3.60;;;18.90;97.30;;;;;;6225671;28;20521;-62
2022/11/03 08:53:58;;;;;;;6.50;3.83;;;19.10;96.30;;;;;;6225956;28;20245;-62
2022/11/03 08:57:03;;;;;;;4.63;3.53;;;19.10;95.90;;;;;;6225555;28;20246;-63
2022/11/03 09:00:08;;;;;;;4.13;3.60;;;19.00;95.20;;;;;;6225185;28;20228;-63
2022/11/03 09:03:12;;;;;;;7.93;4.00;;;18.90;95.10;;;;;;6221075;28;20232;-61
2022/11/03 09:06:15;;;;;;;6.80;3.87;;;18.80;95.50;;;;;;6225856;28;20297;-62
2022/11/03 09:09:20;;;;;;;6.00;3.40;;;18.50;95.40;;;;;;6224093;28;20662;-61
2022/11/03 09:12:44;;;;;;;5.70;3.60;;;18.40;95.60;;;;;;6223238;28;20302;-61
2022/11/03 09:15:47;;;;;;;6.07;3.37;;;18.30;95.30;;;;;;6224888;28;20237;-61
2022/11/03 09:18:50;;;;;;;9.90;3.53;;;18.10;95.30;;;;;;6225263;28;20544;-61
2022/11/03 09:21:53;;;;;;;5.10;3.80;;;17.80;96.00;;;;;;6223686;28;20229;-62
2022/11/03 09:24:57;;;;;;;4.40;3.57;;;17.80;96.20;;;;;;6221770;28;20507;-60
2022/11/03 09:28:01;;;;;;;3.67;3.37;;;17.80;96.00;;;;;;6202617;28;20501;-62
2022/11/03 09:31:04;;;;;;;5.33;3.70;;;17.90;96.10;;;;;;6196773;28;20703;-61
2022/11/03 09:34:08;;;;;;;3.70;3.20;;;17.80;95.70;;;;;;6202365;28;20508;-61
2022/11/03 09:37:11;;;;;;;4.27;3.27;;;17.90;96.00;;;;;;6222933;28;20538;-61
2022/11/03 09:40:16;;;;;;;4.80;3.20;;;18.00;95.70;;;;;;6223844;28;20475;-62
2022/11/03 09:43:21;;;;;;;3.77;3.40;;;17.90;95.70;;;;;;6234603;28;20478;-61
2022/11/03 09:46:25;;;;;;;5.40;3.70;;;17.90;95.70;;;;;;6248590;28;20697;-61
2022/11/03 09:49:30;;;;;;;6.70;4.10;;;17.80;95.70;;;;;;6248731;28;20584;-61
2022/11/03 09:52:36;;;;;;;6.40;3.77;;;17.70;96.00;;;;;;6248183;28;20486;-62
2022/11/03 09:55:40;;;;;;;5.80;3.63;;;17.60;96.20;;;;;;6247870;28;20475;-62
2022/11/03 09:58:44;;;;;;;8.77;3.67;;;17.70;96.40;;;;;;6248595;28;20474;-62
2022/11/03 10:01:55;;;;;;;7.40;4.40;;;17.80;96.00;;;;;;6248661;28;20482;-62
2022/11/03 10:05:01;;;;;;;6.67;4.13;;;17.60;96.50;;;;;;6248006;28;20483;-61
2022/11/03 10:08:23;;;;;;;4.03;3.63;;;17.30;96.80;;;;;;6247956;28;20483;-60
2022/11/03 10:11:26;;;;;;;5.37;3.60;;;17.40;97.30;;;;;;6248278;28;20475;-60
2022/11/03 10:14:30;;;;;;;7.27;3.53;;;17.30;96.90;;;;;;6248443;28;20481;-60
2022/11/03 10:17:34;;;;;;;5.57;3.43;;;17.30;97.00;;;;;;6248282;28;20625;-60
2022/11/03 10:20:37;;;;;;;7.67;4.40;;;17.20;97.00;;;;;;6248772;28;20471;-60
2022/11/03 10:23:40;;;;;;;9.07;4.77;;;17.40;97.30;;;;;;6249126;28;20769;-60
2022/11/03 10:26:45;;;;;;;5.87;3.47;;;18.20;98.00;;;;;;6226944;28;20973;-60
2022/11/03 10:33:31;;;;;;;7.80;3.80;;;22.70;91.60;;;;;;6324380;27;20522;-62
2022/11/03 10:36:35;;;;;;;6.50;3.73;;;24.60;73.80;;;;;;6267781;28;20239;-62
2022/11/03 10:39:38;;;;;;;6.20;4.57;;;24.20;72.60;;;;;;6245810;28;20235;-63
2022/11/03 10:42:57;;;;;;;5.23;3.57;;;24.20;71.60;;;;;;6245249;28;20560;-63
2022/11/03 10:46:11;;;;;;;4.67;4.17;;;25.50;68.00;;;;;;6245667;28;20228;-63
2022/11/03 10:49:35;;;;;;;10.20;3.70;;;25.20;64.10;;;;;;6245407;28;20232;-61
2022/11/03 10:52:43;;;;;;;6.33;4.00;;;23.90;67.10;;;;;;6245512;28;20232;-62
2022/11/03 10:55:46;;;;;;;6.97;4.03;;;23.10;69.30;;;;;;6244965;28;20228;-60
2022/11/03 10:58:49;;;;;;;4.83;3.93;;;22.40;71.50;;;;;;6244929;28;20232;-62
2022/11/03 11:01:53;;;;;;;5.00;4.00;;;21.60;73.50;;;;;;6261927;28;20486;-62
2022/11/03 11:05:01;;;;;;;7.20;5.60;;;21.10;75.70;;;;;;6271151;28;20388;-62
2022/11/03 11:08:04;;;;;;;5.97;4.40;;;20.60;78.40;;;;;;6270667;28;20232;-62
2022/11/03 11:11:07;;;;;;;6.00;4.93;;;20.20;80.90;;;;;;6270722;28;20232;-62
2022/11/03 11:14:35;;;;;;;5.67;5.07;;;19.70;83.60;;;;;;6261773;28;20603;-61
2022/11/03 11:17:44;;;;;;;7.20;4.77;;;18.60;87.10;;;;;;6272130;28;20235;-62
2022/11/03 11:20:49;;;;;;;5.30;4.50;;;18.60;89.60;;;;;;6269347;28;20238;-61
2022/11/03 11:23:52;;;;;;;9.60;4.50;;;18.90;89.80;;;;;;6268944;28;20228;-61
2022/11/03 11:26:55;;;;;;;6.90;4.60;;;19.30;89.70;;;;;;6245199;28;20275;-61
2022/11/03 11:29:59;;;;;;;8.47;5.10;;;19.60;88.40;;;;;;6243355;28;20286;-61
2022/11/03 11:33:13;;;;;;;5.00;4.07;;;20.40;86.70;;;;;;6243695;28;20251;-62
2022/11/03 11:36:23;;;;;;;5.63;4.97;;;22.70;81.00;;;;;;6289978;28;20231;-61
2022/11/03 11:39:45;;;;;;;7.80;4.30;;;24.10;74.00;;;;;;6278964;28;20196;-61
2022/11/03 11:43:26;;;;;;;10.50;5.53;;;24.30;71.30;;;;;;6260866;28;20278;-61
2022/11/03 11:46:41;;;;;;;6.70;4.70;;;23.90;70.90;;;;;;6252371;28;20228;-61
2022/11/03 11:49:44;;;;;;;7.33;4.70;;;23.50;72.90;;;;;;6252458;28;20683;-61
2022/11/03 11:52:52;;;;;;;5.20;3.87;;;24.50;73.90;;;;;;6251890;28;20251;-61
2022/11/03 11:55:57;;;;;;;7.37;4.43;;;27.30;65.80;;;;;;6252138;28;20228;-61
2022/11/03 11:59:01;;;;;;;5.70;5.13;;;29.70;54.80;;;;;;6250784;28;20279;-61
2022/11/03 12:02:15;;;;;;;7.97;4.70;;;29.40;51.70;;;;;;6250431;28;20231;-61
2022/11/03 12:05:21;;;;;;;8.85;4.53;;;30.20;51.30;;;;;;6250147;28;20285;-61
2022/11/03 12:08:28;;;;;;;7.20;4.68;;;33.60;44.30;;;;;;6250046;28;20235;-62
2022/11/03 12:11:42;;;;;;;8.30;5.25;;;34.50;37.60;;;;;;6249973;28;20313;-62
2022/11/03 12:14:48;;;;;;;7.90;7.20;;;32.90;38.50;;;;;;6251405;28;20362;-63
2022/11/03 12:17:52;;;;;;;8.27;6.18;;;31.70;40.60;;;;;;6251577;28;20289;-62
2022/11/03 12:20:55;;;;;;;5.03;4.53;;;31.80;39.80;;;;;;6251189;28;20460;-62
2022/11/03 12:23:59;;;;;;;7.27;5.70;;;30.50;41.10;;;;;;6251519;28;20227;-62
2022/11/03 12:27:04;;;;;;;5.87;4.80;;;28.80;43.50;;;;;;6248540;28;20235;-61
2022/11/03 12:30:17;;;;;;;6.67;5.93;;;26.50;47.90;;;;;;6226255;28;20242;-62
2022/11/03 12:33:20;;;;;;;8.20;5.53;;;25.30;50.80;;;;;;6226538;28;20232;-62
2022/11/03 12:36:23;;;;;;;8.50;7.00;;;24.70;52.20;;;;;;6273720;28;20258;-62
2022/11/03 12:39:28;;;;;;;8.43;5.53;;;24.00;53.90;;;;;;6276369;28;20219;-61
2022/11/03 12:42:31;;;;;;;5.97;5.37;;;23.20;56.10;;;;;;6276867;28;20242;-61
2022/11/03 12:45:34;;;;;;;7.47;5.50;;;22.60;57.90;;;;;;6275773;28;20234;-62
2022/11/03 12:48:42;;;;;;;8.07;5.53;;;22.20;59.30;;;;;;6275069;28;20228;-61
2022/11/03 12:51:45;;;;;;;7.20;5.20;;;21.70;61.10;;;;;;6275681;28;20240;-61
2022/11/03 12:54:50;;;;;;;7.57;5.63;;;21.30;63.50;;;;;;6274308;28;20228;-61
2022/11/03 12:57:53;;;;;;;4.97;4.57;;;20.80;65.60;;;;;;6274987;28;20308;-60
2022/11/03 13:00:56;;;;;;;5.87;4.47;;;20.80;67.00;;;;;;6266251;28;20236;-60
2022/11/03 13:04:05;;;;;;;8.70;5.40;;;20.70;67.40;;;;;;6250349;28;20311;-62
2022/11/03 13:07:08;;;;;;;9.60;5.63;;;20.60;68.90;;;;;;6250066;28;20258;-61
2022/11/03 13:10:13;;;;;;;6.70;5.03;;;20.50;70.00;;;;;;6250339;28;20323;-61
2022/11/03 13:13:16;;;;;;;8.07;4.07;;;20.50;70.90;;;;;;6249556;28;20240;-61
2022/11/03 13:16:20;;;;;;;6.53;5.23;;;20.50;72.40;;;;;;6250160;28;20239;-61
2022/11/03 13:19:25;;;;;;;8.33;5.50;;;20.40;73.50;;;;;;6249663;28;20311;-60
2022/11/03 13:22:28;;;;;;;9.60;4.83;;;20.50;75.00;;;;;;6245404;28;20285;-61
2022/11/03 13:25:33;;;;;;;7.87;4.60;;;20.90;76.30;;;;;;6249342;28;20247;-61
2022/11/03 13:28:36;;;;;;;7.97;4.90;;;21.30;75.20;;;;;;6234490;28;20564;-60
2022/11/03 13:31:39;;;;;;;11.23;5.47;;;21.20;75.70;;;;;;6224536;28;20240;-61
2022/11/03 13:34:43;;;;;;;6.93;4.40;;;21.80;75.40;;;;;;6244279;28;20238;-61
2022/11/03 13:37:46;;;;;;;5.57;4.93;;;22.10;73.00;;;;;;6274073;28;20660;-61
2022/11/03 13:40:51;;;;;;;6.87;5.30;;;21.80;73.30;;;;;;6274257;28;20227;-61
2022/11/03 13:43:59;;;;;;;6.13;5.50;;;21.60;74.70;;;;;;6275286;28;20307;-61
2022/11/03 13:47:03;;;;;;;5.83;4.90;;;21.20;75.70;;;;;;6273600;28;20235;-60
2022/11/03 13:50:09;;;;;;;6.27;5.50;;;20.80;77.40;;;;;;6274133;28;20231;-59
2022/11/03 13:53:17;;;;;;;5.60;5.17;;;20.30;79.60;;;;;;6273540;28;20234;-59
2022/11/03 13:56:42;;;;;;;7.33;5.30;;;20.00;81.40;;;;;;6273359;28;20244;-59
2022/11/03 14:00:06;;;;;;;6.87;5.03;;;19.70;83.30;;;;;;6272198;28;20631;-60
2022/11/03 14:03:10;;;;;;;8.50;5.87;;;19.20;85.90;;;;;;6248941;28;20224;-60
2022/11/03 14:06:33;;;;;;;6.33;5.50;;;18.80;88.20;;;;;;6248044;28;20315;-61
2022/11/03 14:09:36;;;;;;;8.10;5.67;;;18.60;90.30;;;;;;6249063;28;20239;-59
2022/11/03 14:12:45;;;;;;;10.20;5.00;;;18.40;90.90;;;;;;6248923;28;20228;-59
2022/11/03 14:15:49;;;;;;;5.53;5.00;;;18.30;91.50;;;;;;6248678;28;20227;-60
2022/11/03 14:18:52;;;;;;;7.30;5.70;;;18.30;92.00;;;;;;6248581;28;20326;-60
2022/11/03 14:21:55;;;;;;;8.13;5.73;;;18.20;92.50;;;;;;6248729;28;20223;-60
2022/11/03 14:24:58;;;;;;;5.73;5.23;;;18.20;93.00;;;;;;6243925;28;20235;-59
2022/11/03 14:28:02;;;;;;;7.60;5.80;;;18.10;93.30;;;;;;6238129;28;20239;-61
2022/11/03 14:31:06;;;;;;;7.70;5.03;;;18.10;93.50;;;;;;6223869;28;20479;-61
2022/11/03 14:34:09;;;;;;;9.13;5.70;;;18.20;93.70;;;;;;6234275;28;20258;-60
2022/11/03 14:37:13;;;;;;;7.00;5.57;;;18.20;93.90;;;;;;6272684;28;20309;-60
2022/11/03 14:43:34;;;;;;;6.63;5.37;;;18.10;94.30;;;;;;6272821;28;20489;-60
2022/11/03 14:46:38;;;;;;;7.00;6.17;;;18.10;94.50;;;;;;6273135;28;20235;-60
2022/11/03 14:49:41;;;;;;;9.13;5.70;;;18.10;94.80;;;;;;6273096;28;20227;-61
2022/11/03 14:52:44;;;;;;;7.97;6.40;;;18.10;95.20;;;;;;6273756;28;20232;-61
2022/11/03 14:55:47;;;;;;;9.63;5.93;;;18.10;95.50;;;;;;6280830;28;20470;-60
2022/11/03 14:58:52;;;;;;;6.47;5.57;;;18.00;95.90;;;;;;6278524;28;20768;-60
2022/11/03 15:01:55;;;;;;;6.20;5.33;;;17.90;96.10;;;;;;6256149;28;20474;-62
2022/11/03 15:04:59;;;;;;;6.73;5.63;;;17.80;96.70;;;;;;6247861;28;20471;-60
2022/11/03 15:08:02;;;;;;;7.70;6.33;;;17.70;97.00;;;;;;6247613;28;20470;-60
2022/11/03 15:11:06;;;;;;;8.00;5.70;;;17.70;97.40;;;;;;6247936;28;20776;-62
2022/11/03 15:14:11;;;;;;;7.00;5.67;;;17.60;97.70;;;;;;6244677;28;20235;-61
2022/11/03 15:17:14;;;;;;;11.83;8.10;;;17.60;98.40;;;;;;6247316;28;20936;-62
2022/11/03 15:20:18;;;;;;;7.20;6.43;;;17.50;98.70;;;;;;6253035;28;20467;-60
2022/11/03 15:23:21;;;;;;;10.00;6.07;;;17.40;99.00;;;;;;6252642;28;20873;-62
2022/11/03 15:26:44;;;;;;;9.07;7.63;;;17.30;99.20;;;;;;6522157;22;20635;-62
2022/11/03 15:29:48;;;;;;;9.47;7.30;;;17.30;99.30;;;;;;6203691;28;20911;-61
2022/11/03 15:32:52;;;;;;;11.00;6.47;;;17.20;99.40;;;;;;6203574;28;20488;-60
2022/11/03 15:35:55;;;;;;;8.70;6.60;;;17.20;99.60;;;;;;6222646;28;20812;-61
2022/11/03 15:38:59;;;;;;;9.87;7.70;;;17.20;99.90;;;;;;6227756;28;20483;-62
2022/11/03 15:42:02;;;;;;;9.30;6.77;;;17.10;99.90;;;;;;6227460;28;20966;-61
2022/11/03 15:45:08;;;;;;;8.80;7.17;;;17.10;99.90;;;;;;6210129;28;20473;-60
2022/11/03 15:48:11;;;;;;;8.00;7.00;;;17.10;99.90;;;;;;6203082;28;20491;-59
2022/11/03 15:51:15;;;;;;;8.87;6.50;;;17.00;99.90;;;;;;6202596;28;20457;-59
2022/11/03 15:54:18;;;;;;;8.33;7.40;;;16.90;99.90;;;;;;6202473;28;20503;-60
2022/11/03 15:57:21;;;;;;;8.50;6.83;;;16.80;99.90;;;;;;6202263;28;20472;-60
2022/11/03 16:00:26;;;;;;;17.30;12.30;;;16.70;99.90;;;;;;6203245;28;20448;-61
2022/11/03 16:03:30;;;;;;;16.70;13.17;;;16.70;99.90;;;;;;6202936;28;20441;-60
2022/11/03 16:06:34;;;;;;;10.27;9.17;;;16.60;99.90;;;;;;6201850;28;20492;-61
2022/11/03 16:09:57;;;;;;;10.10;8.37;;;16.60;99.90;;;;;;6202045;28;20800;-59
2022/11/03 16:13:01;;;;;;;10.57;9.07;;;16.60;99.90;;;;;;6201960;28;20567;-61
2022/11/03 16:16:06;;;;;;;9.03;7.80;;;16.60;99.90;;;;;;6201863;28;20823;-62
2022/11/03 16:19:09;;;;;;;8.63;7.83;;;16.60;99.90;;;;;;6201765;28;20507;-61
2022/11/03 16:22:13;;;;;;;11.03;8.40;;;16.50;99.90;;;;;;6211006;28;20483;-65
2022/11/03 16:25:17;;;;;;;10.17;8.57;;;16.60;99.90;;;;;;6225797;28;20475;-65
2022/11/03 16:28:23;;;;;;;8.87;7.83;;;16.60;99.90;;;;;;6225201;28;20895;-65
2022/11/03 16:34:47;;;;;;;9.53;7.60;;;16.60;99.90;;;;;;6125636;23;20479;-64